sensor_id;sensor_type;location;lat;lon;timestamp;P1;durP1;ratioP1;P2;durP2;ratioP2
11443;SDS011;5778;47.856;12.154;2023-04-29T00:01:34;0.30;;;0.30;;
11443;SDS011;5778;47.856;12.154;2023-04-29T00:04:18;0.30;;;0.30;;
11443;SDS011;5778;47.856;12.154;2023-04-29T00:06:45;0.13;;;0.13;;
11443;SDS011;5778;47.856;12.154;2023-04-29T00:09:12;0.20;;;0.20;;
11443;SDS011;5778;47.856;12.154;2023-04-29T00:11:39;0.23;;;0.23;;
11443;SDS011;5778;47.856;12.154;2023-04-29T00:14:13;1.00;;;0.30;;
11443;SDS011;5778;47.856;12.154;2023-04-29T00:16:39;0.90;;;0.20;;
11443;SDS011;5778;47.856;12.154;2023-04-29T00:19:06;0.30;;;0.30;;
11443;SDS011;5778;47.856;12.154;2023-04-29T00:21:34;0.23;;;0.23;;
11443;SDS011;5778;47.856;12.154;2023-04-29T00:26:52;0.57;;;0.30;;
11443;SDS011;5778;47.856;12.154;2023-04-29T00:29:21;0.20;;;0.20;;
11443;SDS011;5778;47.856;12.154;2023-04-29T00:31:48;0.20;;;0.20;;
11443;SDS011;5778;47.856;12.154;2023-04-29T00:34:15;0.20;;;0.20;;
11443;SDS011;5778;47.856;12.154;2023-04-29T00:36:42;0.20;;;0.20;;
11443;SDS011;5778;47.856;12.154;2023-04-29T00:39:09;0.60;;;0.30;;
11443;SDS011;5778;47.856;12.154;2023-04-29T00:41:37;0.30;;;0.30;;
11443;SDS011;5778;47.856;12.154;2023-04-29T00:44:10;0.20;;;0.20;;
11443;SDS011;5778;47.856;12.154;2023-04-29T00:46:39;0.30;;;0.30;;
11443;SDS011;5778;47.856;12.154;2023-04-29T00:49:06;1.40;;;0.30;;
11443;SDS011;5778;47.856;12.154;2023-04-29T00:51:33;0.13;;;0.13;;
11443;SDS011;5778;47.856;12.154;2023-04-29T00:56:52;0.30;;;0.30;;
11443;SDS011;5778;47.856;12.154;2023-04-29T00:59:21;1.23;;;0.30;;
11443;SDS011;5778;47.856;12.154;2023-04-29T01:01:50;0.40;;;0.40;;
11443;SDS011;5778;47.856;12.154;2023-04-29T01:04:24;0.30;;;0.30;;
11443;SDS011;5778;47.856;12.154;2023-04-29T01:06:53;0.40;;;0.40;;
11443;SDS011;5778;47.856;12.154;2023-04-29T01:09:35;0.30;;;0.30;;
11443;SDS011;5778;47.856;12.154;2023-04-29T01:12:19;0.20;;;0.20;;
11443;SDS011;5778;47.856;12.154;2023-04-29T01:17:47;0.53;;;0.40;;
11443;SDS011;5778;47.856;12.154;2023-04-29T01:20:18;0.20;;;0.20;;
11443;SDS011;5778;47.856;12.154;2023-04-29T01:22:47;0.40;;;0.40;;
11443;SDS011;5778;47.856;12.154;2023-04-29T01:28:13;0.63;;;0.50;;
11443;SDS011;5778;47.856;12.154;2023-04-29T01:30:49;0.40;;;0.40;;
11443;SDS011;5778;47.856;12.154;2023-04-29T01:33:36;0.40;;;0.40;;
11443;SDS011;5778;47.856;12.154;2023-04-29T01:36:11;0.43;;;0.40;;
11443;SDS011;5778;47.856;12.154;2023-04-29T01:38:49;0.40;;;0.40;;
11443;SDS011;5778;47.856;12.154;2023-04-29T01:41:26;0.50;;;0.50;;
11443;SDS011;5778;47.856;12.154;2023-04-29T01:44:28;0.43;;;0.43;;
11443;SDS011;5778;47.856;12.154;2023-04-29T01:46:57;0.50;;;0.50;;
11443;SDS011;5778;47.856;12.154;2023-04-29T01:49:34;0.40;;;0.40;;
11443;SDS011;5778;47.856;12.154;2023-04-29T01:52:01;1.03;;;0.50;;
11443;SDS011;5778;47.856;12.154;2023-04-29T01:54:31;1.00;;;0.40;;
11443;SDS011;5778;47.856;12.154;2023-04-29T01:57:02;0.43;;;0.43;;
11443;SDS011;5778;47.856;12.154;2023-04-29T01:59:41;0.40;;;0.40;;
11443;SDS011;5778;47.856;12.154;2023-04-29T02:02:22;0.40;;;0.40;;
11443;SDS011;5778;47.856;12.154;2023-04-29T02:04:58;0.40;;;0.40;;
11443;SDS011;5778;47.856;12.154;2023-04-29T02:07:25;0.83;;;0.50;;
11443;SDS011;5778;47.856;12.154;2023-04-29T02:09:54;0.53;;;0.53;;
11443;SDS011;5778;47.856;12.154;2023-04-29T02:12:23;0.40;;;0.40;;
11443;SDS011;5778;47.856;12.154;2023-04-29T02:18:14;0.50;;;0.50;;
11443;SDS011;5778;47.856;12.154;2023-04-29T02:20:41;0.50;;;0.50;;
11443;SDS011;5778;47.856;12.154;2023-04-29T02:23:08;0.50;;;0.50;;
11443;SDS011;5778;47.856;12.154;2023-04-29T02:25:35;0.93;;;0.50;;
11443;SDS011;5778;47.856;12.154;2023-04-29T02:28:04;0.77;;;0.50;;
11443;SDS011;5778;47.856;12.154;2023-04-29T02:30:31;0.60;;;0.60;;
11443;SDS011;5778;47.856;12.154;2023-04-29T02:32:58;1.97;;;0.63;;
11443;SDS011;5778;47.856;12.154;2023-04-29T02:35:25;0.70;;;0.70;;
11443;SDS011;5778;47.856;12.154;2023-04-29T02:37:52;0.70;;;0.70;;
11443;SDS011;5778;47.856;12.154;2023-04-29T02:40:19;0.60;;;0.50;;
11443;SDS011;5778;47.856;12.154;2023-04-29T02:42:46;1.73;;;0.60;;
11443;SDS011;5778;47.856;12.154;2023-04-29T02:48:20;0.60;;;0.60;;
11443;SDS011;5778;47.856;12.154;2023-04-29T02:50:47;0.80;;;0.77;;
11443;SDS011;5778;47.856;12.154;2023-04-29T02:53:28;0.63;;;0.63;;
11443;SDS011;5778;47.856;12.154;2023-04-29T02:55:54;0.80;;;0.80;;
11443;SDS011;5778;47.856;12.154;2023-04-29T02:58:22;1.50;;;0.80;;
11443;SDS011;5778;47.856;12.154;2023-04-29T03:00:49;2.00;;;1.10;;
11443;SDS011;5778;47.856;12.154;2023-04-29T03:03:21;1.40;;;1.10;;
11443;SDS011;5778;47.856;12.154;2023-04-29T03:05:48;1.30;;;1.20;;
11443;SDS011;5778;47.856;12.154;2023-04-29T03:08:15;1.10;;;1.00;;
11443;SDS011;5778;47.856;12.154;2023-04-29T03:10:43;1.57;;;1.20;;
11443;SDS011;5778;47.856;12.154;2023-04-29T03:16:11;1.10;;;1.10;;
11443;SDS011;5778;47.856;12.154;2023-04-29T03:18:42;1.10;;;1.10;;
11443;SDS011;5778;47.856;12.154;2023-04-29T03:21:10;2.00;;;1.33;;
11443;SDS011;5778;47.856;12.154;2023-04-29T03:23:42;2.20;;;1.10;;
11443;SDS011;5778;47.856;12.154;2023-04-29T03:26:13;1.30;;;1.20;;
11443;SDS011;5778;47.856;12.154;2023-04-29T03:28:39;1.27;;;1.27;;
11443;SDS011;5778;47.856;12.154;2023-04-29T03:31:06;1.10;;;1.10;;
11443;SDS011;5778;47.856;12.154;2023-04-29T03:33:42;1.30;;;1.20;;
11443;SDS011;5778;47.856;12.154;2023-04-29T03:36:09;1.20;;;1.20;;
11443;SDS011;5778;47.856;12.154;2023-04-29T03:38:50;1.17;;;1.10;;
11443;SDS011;5778;47.856;12.154;2023-04-29T03:41:18;2.20;;;1.50;;
11443;SDS011;5778;47.856;12.154;2023-04-29T03:47:08;1.93;;;1.40;;
11443;SDS011;5778;47.856;12.154;2023-04-29T03:49:37;1.20;;;1.20;;
11443;SDS011;5778;47.856;12.154;2023-04-29T03:52:04;1.40;;;1.30;;
11443;SDS011;5778;47.856;12.154;2023-04-29T03:54:38;1.30;;;1.20;;
11443;SDS011;5778;47.856;12.154;2023-04-29T03:57:05;1.10;;;1.10;;
11443;SDS011;5778;47.856;12.154;2023-04-29T03:59:32;1.30;;;1.30;;
11443;SDS011;5778;47.856;12.154;2023-04-29T04:01:59;1.20;;;1.10;;
11443;SDS011;5778;47.856;12.154;2023-04-29T04:07:33;1.10;;;1.10;;
11443;SDS011;5778;47.856;12.154;2023-04-29T04:10:29;1.10;;;1.10;;
11443;SDS011;5778;47.856;12.154;2023-04-29T04:13:15;3.23;;;1.40;;
11443;SDS011;5778;47.856;12.154;2023-04-29T04:15:47;1.63;;;1.50;;
11443;SDS011;5778;47.856;12.154;2023-04-29T04:18:15;1.60;;;1.50;;
11443;SDS011;5778;47.856;12.154;2023-04-29T04:20:43;1.30;;;1.30;;
11443;SDS011;5778;47.856;12.154;2023-04-29T04:23:28;1.40;;;1.27;;
11443;SDS011;5778;47.856;12.154;2023-04-29T04:25:55;1.77;;;1.47;;
11443;SDS011;5778;47.856;12.154;2023-04-29T04:28:45;1.83;;;1.50;;
11443;SDS011;5778;47.856;12.154;2023-04-29T04:31:21;1.60;;;1.50;;
11443;SDS011;5778;47.856;12.154;2023-04-29T04:33:52;1.20;;;1.20;;
11443;SDS011;5778;47.856;12.154;2023-04-29T04:36:19;3.37;;;1.20;;
11443;SDS011;5778;47.856;12.154;2023-04-29T04:38:48;1.40;;;1.30;;
11443;SDS011;5778;47.856;12.154;2023-04-29T04:41:14;1.60;;;1.50;;
11443;SDS011;5778;47.856;12.154;2023-04-29T04:43:45;1.63;;;1.47;;
11443;SDS011;5778;47.856;12.154;2023-04-29T04:46:22;1.50;;;1.40;;
11443;SDS011;5778;47.856;12.154;2023-04-29T04:49:17;3.27;;;3.07;;
11443;SDS011;5778;47.856;12.154;2023-04-29T04:51:48;1.40;;;1.30;;
11443;SDS011;5778;47.856;12.154;2023-04-29T04:57:27;1.70;;;1.60;;
11443;SDS011;5778;47.856;12.154;2023-04-29T04:59:59;3.97;;;3.67;;
11443;SDS011;5778;47.856;12.154;2023-04-29T05:02:26;2.60;;;2.10;;
11443;SDS011;5778;47.856;12.154;2023-04-29T05:04:55;2.27;;;2.07;;
11443;SDS011;5778;47.856;12.154;2023-04-29T05:07:25;1.93;;;1.60;;
11443;SDS011;5778;47.856;12.154;2023-04-29T05:09:59;2.50;;;2.00;;
11443;SDS011;5778;47.856;12.154;2023-04-29T05:12:28;1.50;;;1.40;;
11443;SDS011;5778;47.856;12.154;2023-04-29T05:15:04;1.43;;;1.40;;
11443;SDS011;5778;47.856;12.154;2023-04-29T05:17:33;4.60;;;3.70;;
11443;SDS011;5778;47.856;12.154;2023-04-29T05:20:00;2.50;;;2.30;;
11443;SDS011;5778;47.856;12.154;2023-04-29T05:22:29;2.17;;;1.97;;
11443;SDS011;5778;47.856;12.154;2023-04-29T05:28:20;1.80;;;1.70;;
11443;SDS011;5778;47.856;12.154;2023-04-29T05:30:49;2.03;;;1.83;;
11443;SDS011;5778;47.856;12.154;2023-04-29T05:36:40;1.30;;;1.30;;
11443;SDS011;5778;47.856;12.154;2023-04-29T05:39:07;1.23;;;1.23;;
11443;SDS011;5778;47.856;12.154;2023-04-29T05:41:35;1.33;;;1.30;;
11443;SDS011;5778;47.856;12.154;2023-04-29T05:44:14;2.53;;;1.90;;
11443;SDS011;5778;47.856;12.154;2023-04-29T05:46:41;1.53;;;1.43;;
11443;SDS011;5778;47.856;12.154;2023-04-29T05:49:08;2.50;;;2.30;;
11443;SDS011;5778;47.856;12.154;2023-04-29T05:51:35;2.47;;;1.30;;
11443;SDS011;5778;47.856;12.154;2023-04-29T05:56:50;1.70;;;1.60;;
11443;SDS011;5778;47.856;12.154;2023-04-29T05:59:18;4.13;;;1.50;;
11443;SDS011;5778;47.856;12.154;2023-04-29T06:01:50;1.23;;;1.20;;
11443;SDS011;5778;47.856;12.154;2023-04-29T06:04:17;1.40;;;1.10;;
11443;SDS011;5778;47.856;12.154;2023-04-29T06:07:10;1.63;;;1.10;;
11443;SDS011;5778;47.856;12.154;2023-04-29T06:09:56;1.20;;;1.20;;
11443;SDS011;5778;47.856;12.154;2023-04-29T06:12:25;1.47;;;1.43;;
11443;SDS011;5778;47.856;12.154;2023-04-29T06:18:16;1.07;;;1.00;;
11443;SDS011;5778;47.856;12.154;2023-04-29T06:20:43;1.90;;;1.80;;
11443;SDS011;5778;47.856;12.154;2023-04-29T06:23:17;1.33;;;1.30;;
11443;SDS011;5778;47.856;12.154;2023-04-29T06:25:45;1.97;;;1.40;;
11443;SDS011;5778;47.856;12.154;2023-04-29T06:28:11;1.10;;;1.10;;
11443;SDS011;5778;47.856;12.154;2023-04-29T06:30:39;2.17;;;2.00;;
11443;SDS011;5778;47.856;12.154;2023-04-29T06:33:10;1.90;;;1.80;;
11443;SDS011;5778;47.856;12.154;2023-04-29T06:35:39;1.67;;;1.43;;
11443;SDS011;5778;47.856;12.154;2023-04-29T06:38:23;0.83;;;0.83;;
11443;SDS011;5778;47.856;12.154;2023-04-29T06:41:00;1.00;;;1.00;;
11443;SDS011;5778;47.856;12.154;2023-04-29T06:43:47;1.33;;;0.80;;
11443;SDS011;5778;47.856;12.154;2023-04-29T06:46:36;1.00;;;1.00;;
11443;SDS011;5778;47.856;12.154;2023-04-29T06:49:13;1.13;;;0.80;;
11443;SDS011;5778;47.856;12.154;2023-04-29T06:51:41;1.63;;;0.90;;
11443;SDS011;5778;47.856;12.154;2023-04-29T06:54:10;1.03;;;0.87;;
11443;SDS011;5778;47.856;12.154;2023-04-29T06:56:37;0.80;;;0.80;;
11443;SDS011;5778;47.856;12.154;2023-04-29T06:59:04;0.80;;;0.80;;
11443;SDS011;5778;47.856;12.154;2023-04-29T07:01:33;0.80;;;0.80;;
11443;SDS011;5778;47.856;12.154;2023-04-29T07:04:09;0.83;;;0.83;;
11443;SDS011;5778;47.856;12.154;2023-04-29T07:06:37;1.70;;;0.90;;
11443;SDS011;5778;47.856;12.154;2023-04-29T07:09:06;2.07;;;0.90;;
11443;SDS011;5778;47.856;12.154;2023-04-29T07:11:35;1.00;;;1.00;;
11443;SDS011;5778;47.856;12.154;2023-04-29T07:16:52;2.27;;;1.40;;
11443;SDS011;5778;47.856;12.154;2023-04-29T07:19:19;2.77;;;1.33;;
11443;SDS011;5778;47.856;12.154;2023-04-29T07:21:46;1.60;;;1.50;;
11443;SDS011;5778;47.856;12.154;2023-04-29T07:24:28;2.20;;;1.20;;
11443;SDS011;5778;47.856;12.154;2023-04-29T07:26:55;1.40;;;1.30;;
11443;SDS011;5778;47.856;12.154;2023-04-29T07:29:22;1.37;;;1.20;;
11443;SDS011;5778;47.856;12.154;2023-04-29T07:31:49;1.40;;;1.30;;
11443;SDS011;5778;47.856;12.154;2023-04-29T07:34:16;1.63;;;1.23;;
11443;SDS011;5778;47.856;12.154;2023-04-29T07:36:43;1.43;;;1.33;;
11443;SDS011;5778;47.856;12.154;2023-04-29T07:39:10;1.47;;;1.20;;
11443;SDS011;5778;47.856;12.154;2023-04-29T07:41:46;1.30;;;1.20;;
11443;SDS011;5778;47.856;12.154;2023-04-29T07:44:19;3.43;;;1.43;;
11443;SDS011;5778;47.856;12.154;2023-04-29T07:46:47;3.63;;;1.07;;
11443;SDS011;5778;47.856;12.154;2023-04-29T07:49:14;1.77;;;1.20;;
11443;SDS011;5778;47.856;12.154;2023-04-29T07:51:41;1.43;;;1.40;;
11443;SDS011;5778;47.856;12.154;2023-04-29T07:54:09;2.20;;;1.40;;
11443;SDS011;5778;47.856;12.154;2023-04-29T07:56:36;1.10;;;1.10;;
11443;SDS011;5778;47.856;12.154;2023-04-29T07:59:04;1.27;;;1.17;;
11443;SDS011;5778;47.856;12.154;2023-04-29T08:01:31;1.00;;;1.00;;
11443;SDS011;5778;47.856;12.154;2023-04-29T08:07:05;2.67;;;0.90;;
11443;SDS011;5778;47.856;12.154;2023-04-29T08:09:34;1.37;;;1.07;;
11443;SDS011;5778;47.856;12.154;2023-04-29T08:12:03;1.10;;;1.00;;
11443;SDS011;5778;47.856;12.154;2023-04-29T08:17:33;0.73;;;0.70;;
11443;SDS011;5778;47.856;12.154;2023-04-29T08:20:00;1.10;;;1.00;;
11443;SDS011;5778;47.856;12.154;2023-04-29T08:22:26;0.90;;;0.80;;
11443;SDS011;5778;47.856;12.154;2023-04-29T08:24:53;1.00;;;0.90;;
11443;SDS011;5778;47.856;12.154;2023-04-29T08:27:20;0.80;;;0.80;;
11443;SDS011;5778;47.856;12.154;2023-04-29T08:29:47;0.80;;;0.80;;
11443;SDS011;5778;47.856;12.154;2023-04-29T08:32:15;1.07;;;0.97;;
11443;SDS011;5778;47.856;12.154;2023-04-29T08:34:44;1.00;;;0.90;;
11443;SDS011;5778;47.856;12.154;2023-04-29T08:37:11;0.80;;;0.80;;
11443;SDS011;5778;47.856;12.154;2023-04-29T08:39:39;0.90;;;0.90;;
11443;SDS011;5778;47.856;12.154;2023-04-29T08:42:07;0.90;;;0.90;;
11443;SDS011;5778;47.856;12.154;2023-04-29T08:47:30;1.40;;;1.30;;
11443;SDS011;5778;47.856;12.154;2023-04-29T08:49:58;1.10;;;1.00;;
11443;SDS011;5778;47.856;12.154;2023-04-29T08:52:29;1.00;;;0.90;;
11443;SDS011;5778;47.856;12.154;2023-04-29T08:57:50;0.73;;;0.73;;
11443;SDS011;5778;47.856;12.154;2023-04-29T09:00:20;0.93;;;0.83;;
11443;SDS011;5778;47.856;12.154;2023-04-29T09:02:52;0.80;;;0.80;;
11443;SDS011;5778;47.856;12.154;2023-04-29T09:05:21;0.90;;;0.60;;
11443;SDS011;5778;47.856;12.154;2023-04-29T09:07:51;0.80;;;0.80;;
11443;SDS011;5778;47.856;12.154;2023-04-29T09:10:18;0.70;;;0.70;;
11443;SDS011;5778;47.856;12.154;2023-04-29T09:12:46;1.10;;;1.00;;
11443;SDS011;5778;47.856;12.154;2023-04-29T09:15:34;1.00;;;1.00;;
11443;SDS011;5778;47.856;12.154;2023-04-29T09:18:03;0.70;;;0.67;;
11443;SDS011;5778;47.856;12.154;2023-04-29T09:20:30;1.17;;;0.80;;
11443;SDS011;5778;47.856;12.154;2023-04-29T09:22:58;0.70;;;0.70;;
11443;SDS011;5778;47.856;12.154;2023-04-29T09:25:27;1.10;;;1.00;;
11443;SDS011;5778;47.856;12.154;2023-04-29T09:27:55;1.00;;;1.00;;
11443;SDS011;5778;47.856;12.154;2023-04-29T09:30:22;1.00;;;0.90;;
11443;SDS011;5778;47.856;12.154;2023-04-29T09:35:55;1.70;;;1.17;;
11443;SDS011;5778;47.856;12.154;2023-04-29T09:38:22;0.90;;;0.90;;
11443;SDS011;5778;47.856;12.154;2023-04-29T09:40:49;0.80;;;0.80;;
11443;SDS011;5778;47.856;12.154;2023-04-29T09:43:17;0.87;;;0.80;;
11443;SDS011;5778;47.856;12.154;2023-04-29T09:45:46;0.90;;;0.90;;
11443;SDS011;5778;47.856;12.154;2023-04-29T09:48:14;1.00;;;0.90;;
11443;SDS011;5778;47.856;12.154;2023-04-29T09:50:43;0.93;;;0.87;;
11443;SDS011;5778;47.856;12.154;2023-04-29T09:56:27;2.90;;;0.90;;
11443;SDS011;5778;47.856;12.154;2023-04-29T09:58:55;2.03;;;0.90;;
11443;SDS011;5778;47.856;12.154;2023-04-29T10:01:23;0.90;;;0.90;;
11443;SDS011;5778;47.856;12.154;2023-04-29T10:03:52;3.43;;;1.10;;
11443;SDS011;5778;47.856;12.154;2023-04-29T10:06:24;1.93;;;1.37;;
11443;SDS011;5778;47.856;12.154;2023-04-29T10:08:51;1.47;;;1.37;;
11443;SDS011;5778;47.856;12.154;2023-04-29T10:11:18;2.27;;;1.10;;
11443;SDS011;5778;47.856;12.154;2023-04-29T10:16:41;4.97;;;2.00;;
11443;SDS011;5778;47.856;12.154;2023-04-29T10:19:13;3.30;;;1.53;;
11443;SDS011;5778;47.856;12.154;2023-04-29T10:21:46;2.47;;;1.60;;
11443;SDS011;5778;47.856;12.154;2023-04-29T10:27:11;2.70;;;1.13;;
11443;SDS011;5778;47.856;12.154;2023-04-29T10:29:40;2.63;;;1.40;;
11443;SDS011;5778;47.856;12.154;2023-04-29T10:32:09;1.80;;;1.33;;
11443;SDS011;5778;47.856;12.154;2023-04-29T10:34:49;1.10;;;1.10;;
11443;SDS011;5778;47.856;12.154;2023-04-29T10:37:20;1.33;;;1.23;;
11443;SDS011;5778;47.856;12.154;2023-04-29T10:39:51;1.70;;;1.20;;
11443;SDS011;5778;47.856;12.154;2023-04-29T10:42:28;1.30;;;1.30;;
11443;SDS011;5778;47.856;12.154;2023-04-29T10:48:09;1.50;;;1.40;;
11443;SDS011;5778;47.856;12.154;2023-04-29T10:56:46;3.50;;;1.60;;
11443;SDS011;5778;47.856;12.154;2023-04-29T10:59:15;0.73;;;0.50;;
11443;SDS011;5778;47.856;12.154;2023-04-29T11:01:43;1.37;;;0.60;;
11443;SDS011;5778;47.856;12.154;2023-04-29T11:07:25;0.70;;;0.70;;
11443;SDS011;5778;47.856;12.154;2023-04-29T11:09:56;1.07;;;0.97;;
11443;SDS011;5778;47.856;12.154;2023-04-29T11:12:23;1.10;;;0.90;;
11443;SDS011;5778;47.856;12.154;2023-04-29T11:14:57;5.30;;;4.90;;
11443;SDS011;5778;47.856;12.154;2023-04-29T11:17:33;1.57;;;1.20;;
11443;SDS011;5778;47.856;12.154;2023-04-29T11:20:02;1.10;;;1.10;;
11443;SDS011;5778;47.856;12.154;2023-04-29T11:22:30;0.80;;;0.80;;
11443;SDS011;5778;47.856;12.154;2023-04-29T11:25:18;0.70;;;0.67;;
11443;SDS011;5778;47.856;12.154;2023-04-29T11:27:45;1.13;;;0.83;;
11443;SDS011;5778;47.856;12.154;2023-04-29T11:30:13;1.27;;;1.10;;
11443;SDS011;5778;47.856;12.154;2023-04-29T11:32:41;1.37;;;1.17;;
11443;SDS011;5778;47.856;12.154;2023-04-29T11:35:18;0.90;;;0.90;;
11443;SDS011;5778;47.856;12.154;2023-04-29T11:37:45;0.83;;;0.83;;
11443;SDS011;5778;47.856;12.154;2023-04-29T11:40:12;0.80;;;0.80;;
11443;SDS011;5778;47.856;12.154;2023-04-29T11:42:43;0.60;;;0.60;;
11443;SDS011;5778;47.856;12.154;2023-04-29T11:48:01;1.30;;;0.80;;
11443;SDS011;5778;47.856;12.154;2023-04-29T11:50:31;2.73;;;1.00;;
11443;SDS011;5778;47.856;12.154;2023-04-29T11:53:10;1.50;;;0.77;;
11443;SDS011;5778;47.856;12.154;2023-04-29T11:55:37;1.27;;;0.90;;
11443;SDS011;5778;47.856;12.154;2023-04-29T11:58:06;0.60;;;0.60;;
11443;SDS011;5778;47.856;12.154;2023-04-29T12:00:33;0.80;;;0.80;;
11443;SDS011;5778;47.856;12.154;2023-04-29T12:03:00;1.33;;;0.90;;
11443;SDS011;5778;47.856;12.154;2023-04-29T12:05:27;2.07;;;0.90;;
11443;SDS011;5778;47.856;12.154;2023-04-29T12:07:54;1.10;;;1.10;;
11443;SDS011;5778;47.856;12.154;2023-04-29T12:10:21;0.90;;;0.90;;
11443;SDS011;5778;47.856;12.154;2023-04-29T12:12:48;2.00;;;1.17;;
11443;SDS011;5778;47.856;12.154;2023-04-29T12:18:38;2.03;;;1.23;;
11443;SDS011;5778;47.856;12.154;2023-04-29T12:21:05;0.97;;;0.97;;
11443;SDS011;5778;47.856;12.154;2023-04-29T12:23:44;1.00;;;1.00;;
11443;SDS011;5778;47.856;12.154;2023-04-29T12:26:11;1.47;;;0.90;;
11443;SDS011;5778;47.856;12.154;2023-04-29T12:28:39;0.80;;;0.80;;
11443;SDS011;5778;47.856;12.154;2023-04-29T12:31:07;0.80;;;0.80;;
11443;SDS011;5778;47.856;12.154;2023-04-29T12:33:35;1.33;;;1.20;;
11443;SDS011;5778;47.856;12.154;2023-04-29T12:36:14;1.00;;;1.00;;
11443;SDS011;5778;47.856;12.154;2023-04-29T12:38:42;1.00;;;1.00;;
11443;SDS011;5778;47.856;12.154;2023-04-29T12:41:09;2.37;;;0.97;;
11443;SDS011;5778;47.856;12.154;2023-04-29T12:43:42;1.10;;;1.10;;
11443;SDS011;5778;47.856;12.154;2023-04-29T12:46:09;1.03;;;1.03;;
11443;SDS011;5778;47.856;12.154;2023-04-29T12:48:37;1.57;;;1.47;;
11443;SDS011;5778;47.856;12.154;2023-04-29T12:51:09;1.43;;;1.27;;
11443;SDS011;5778;47.856;12.154;2023-04-29T12:53:38;1.40;;;1.27;;
11443;SDS011;5778;47.856;12.154;2023-04-29T12:56:05;0.90;;;0.90;;
11443;SDS011;5778;47.856;12.154;2023-04-29T12:58:33;2.20;;;1.27;;
11443;SDS011;5778;47.856;12.154;2023-04-29T13:01:00;3.87;;;1.50;;
11443;SDS011;5778;47.856;12.154;2023-04-29T13:03:34;1.30;;;1.20;;
11443;SDS011;5778;47.856;12.154;2023-04-29T13:06:01;1.83;;;1.10;;
11443;SDS011;5778;47.856;12.154;2023-04-29T13:08:30;1.70;;;1.07;;
11443;SDS011;5778;47.856;12.154;2023-04-29T13:10:57;2.73;;;1.57;;
11443;SDS011;5778;47.856;12.154;2023-04-29T13:16:14;1.43;;;1.13;;
11443;SDS011;5778;47.856;12.154;2023-04-29T13:18:41;1.07;;;1.07;;
11443;SDS011;5778;47.856;12.154;2023-04-29T13:21:07;1.00;;;1.00;;
11443;SDS011;5778;47.856;12.154;2023-04-29T13:26:53;0.90;;;0.90;;
11443;SDS011;5778;47.856;12.154;2023-04-29T13:29:20;1.00;;;1.00;;
11443;SDS011;5778;47.856;12.154;2023-04-29T13:31:47;1.03;;;0.80;;
11443;SDS011;5778;47.856;12.154;2023-04-29T13:37:36;2.20;;;0.77;;
11443;SDS011;5778;47.856;12.154;2023-04-29T13:40:03;1.20;;;1.20;;
11443;SDS011;5778;47.856;12.154;2023-04-29T13:42:33;1.73;;;0.90;;
11443;SDS011;5778;47.856;12.154;2023-04-29T13:45:02;0.90;;;0.83;;
11443;SDS011;5778;47.856;12.154;2023-04-29T13:47:29;0.80;;;0.60;;
11443;SDS011;5778;47.856;12.154;2023-04-29T13:49:56;2.37;;;0.97;;
11443;SDS011;5778;47.856;12.154;2023-04-29T13:52:23;1.23;;;0.87;;
11443;SDS011;5778;47.856;12.154;2023-04-29T13:54:52;0.97;;;0.90;;
11443;SDS011;5778;47.856;12.154;2023-04-29T13:57:19;1.17;;;1.10;;
11443;SDS011;5778;47.856;12.154;2023-04-29T13:59:48;1.03;;;1.03;;
11443;SDS011;5778;47.856;12.154;2023-04-29T14:02:17;0.70;;;0.70;;
11443;SDS011;5778;47.856;12.154;2023-04-29T14:04:46;1.33;;;0.90;;
11443;SDS011;5778;47.856;12.154;2023-04-29T14:07:14;0.70;;;0.70;;
11443;SDS011;5778;47.856;12.154;2023-04-29T14:09:40;0.80;;;0.80;;
11443;SDS011;5778;47.856;12.154;2023-04-29T14:12:07;0.90;;;0.90;;
11443;SDS011;5778;47.856;12.154;2023-04-29T14:17:32;1.57;;;0.90;;
11443;SDS011;5778;47.856;12.154;2023-04-29T14:19:58;2.17;;;0.70;;
11443;SDS011;5778;47.856;12.154;2023-04-29T14:22:25;0.70;;;0.70;;
11443;SDS011;5778;47.856;12.154;2023-04-29T14:28:14;0.60;;;0.60;;
11443;SDS011;5778;47.856;12.154;2023-04-29T14:30:43;1.30;;;0.90;;
11443;SDS011;5778;47.856;12.154;2023-04-29T14:35:57;0.93;;;0.80;;
11443;SDS011;5778;47.856;12.154;2023-04-29T14:38:25;1.00;;;0.80;;
11443;SDS011;5778;47.856;12.154;2023-04-29T14:40:52;1.53;;;0.80;;
11443;SDS011;5778;47.856;12.154;2023-04-29T14:46:17;0.97;;;0.90;;
11443;SDS011;5778;47.856;12.154;2023-04-29T14:48:44;1.97;;;0.97;;
11443;SDS011;5778;47.856;12.154;2023-04-29T14:51:11;0.77;;;0.77;;
11443;SDS011;5778;47.856;12.154;2023-04-29T14:53:43;1.40;;;0.70;;
11443;SDS011;5778;47.856;12.154;2023-04-29T14:56:10;1.00;;;1.00;;
11443;SDS011;5778;47.856;12.154;2023-04-29T14:58:36;0.90;;;0.80;;
11443;SDS011;5778;47.856;12.154;2023-04-29T15:01:03;0.97;;;0.97;;
11443;SDS011;5778;47.856;12.154;2023-04-29T15:03:35;2.70;;;1.40;;
11443;SDS011;5778;47.856;12.154;2023-04-29T15:06:02;1.20;;;1.00;;
11443;SDS011;5778;47.856;12.154;2023-04-29T15:08:29;1.13;;;0.73;;
11443;SDS011;5778;47.856;12.154;2023-04-29T15:10:56;0.90;;;0.90;;
11443;SDS011;5778;47.856;12.154;2023-04-29T15:13:40;0.70;;;0.70;;
11443;SDS011;5778;47.856;12.154;2023-04-29T15:16:07;1.17;;;0.80;;
11443;SDS011;5778;47.856;12.154;2023-04-29T15:18:36;0.80;;;0.80;;
11443;SDS011;5778;47.856;12.154;2023-04-29T15:21:03;1.40;;;0.70;;
11443;SDS011;5778;47.856;12.154;2023-04-29T15:26:43;0.87;;;0.83;;
11443;SDS011;5778;47.856;12.154;2023-04-29T15:29:10;0.70;;;0.70;;
11443;SDS011;5778;47.856;12.154;2023-04-29T15:31:37;1.37;;;1.00;;
11443;SDS011;5778;47.856;12.154;2023-04-29T15:34:07;0.97;;;0.80;;
11443;SDS011;5778;47.856;12.154;2023-04-29T15:36:35;1.03;;;1.03;;
11443;SDS011;5778;47.856;12.154;2023-04-29T15:39:01;0.90;;;0.90;;
11443;SDS011;5778;47.856;12.154;2023-04-29T15:41:28;0.83;;;0.83;;
11443;SDS011;5778;47.856;12.154;2023-04-29T15:44:02;0.97;;;0.90;;
11443;SDS011;5778;47.856;12.154;2023-04-29T15:46:29;0.97;;;0.87;;
11443;SDS011;5778;47.856;12.154;2023-04-29T15:48:57;0.83;;;0.70;;
11443;SDS011;5778;47.856;12.154;2023-04-29T15:51:25;0.87;;;0.80;;
11443;SDS011;5778;47.856;12.154;2023-04-29T15:54:06;1.93;;;1.00;;
11443;SDS011;5778;47.856;12.154;2023-04-29T15:56:34;0.70;;;0.70;;
11443;SDS011;5778;47.856;12.154;2023-04-29T15:59:01;0.63;;;0.63;;
11443;SDS011;5778;47.856;12.154;2023-04-29T16:01:28;1.10;;;1.10;;
11443;SDS011;5778;47.856;12.154;2023-04-29T16:06:58;1.43;;;1.10;;
11443;SDS011;5778;47.856;12.154;2023-04-29T16:09:29;1.33;;;0.90;;
11443;SDS011;5778;47.856;12.154;2023-04-29T16:11:56;1.10;;;0.90;;
11443;SDS011;5778;47.856;12.154;2023-04-29T16:14:30;0.80;;;0.80;;
11443;SDS011;5778;47.856;12.154;2023-04-29T16:16:57;2.00;;;1.20;;
11443;SDS011;5778;47.856;12.154;2023-04-29T16:19:24;1.10;;;1.10;;
11443;SDS011;5778;47.856;12.154;2023-04-29T16:21:51;1.67;;;1.37;;
11443;SDS011;5778;47.856;12.154;2023-04-29T16:24:22;1.50;;;1.30;;
11443;SDS011;5778;47.856;12.154;2023-04-29T16:26:49;1.20;;;1.20;;
11443;SDS011;5778;47.856;12.154;2023-04-29T16:29:16;1.20;;;1.10;;
11443;SDS011;5778;47.856;12.154;2023-04-29T16:31:43;1.73;;;1.60;;
11443;SDS011;5778;47.856;12.154;2023-04-29T16:34:11;1.73;;;1.30;;
11443;SDS011;5778;47.856;12.154;2023-04-29T16:36:38;1.87;;;1.10;;
11443;SDS011;5778;47.856;12.154;2023-04-29T16:39:05;1.10;;;1.00;;
11443;SDS011;5778;47.856;12.154;2023-04-29T16:41:33;2.50;;;0.93;;
11443;SDS011;5778;47.856;12.154;2023-04-29T16:47:10;1.20;;;1.20;;
11443;SDS011;5778;47.856;12.154;2023-04-29T16:49:38;1.50;;;1.40;;
11443;SDS011;5778;47.856;12.154;2023-04-29T16:52:05;1.27;;;1.20;;
11443;SDS011;5778;47.856;12.154;2023-04-29T16:57:39;1.37;;;1.20;;
11443;SDS011;5778;47.856;12.154;2023-04-29T17:00:06;1.10;;;1.10;;
11443;SDS011;5778;47.856;12.154;2023-04-29T17:02:35;2.77;;;1.70;;
11443;SDS011;5778;47.856;12.154;2023-04-29T17:05:05;2.83;;;2.43;;
11443;SDS011;5778;47.856;12.154;2023-04-29T17:07:33;1.73;;;1.30;;